sensor_id;sensor_type;location;lat;lon;timestamp;P1;durP1;ratioP1;P2;durP2;ratioP2
26686;SDS011;14298;50.900;4.648;2022-12-08T00:01:48;2.07;;;1.97;;
26686;SDS011;14298;50.900;4.648;2022-12-08T00:04:16;4.80;;;2.70;;
26686;SDS011;14298;50.900;4.648;2022-12-08T00:06:45;3.23;;;2.87;;
26686;SDS011;14298;50.900;4.648;2022-12-08T00:09:32;2.70;;;2.50;;
26686;SDS011;14298;50.900;4.648;2022-12-08T00:12:06;2.93;;;2.67;;
26686;SDS011;14298;50.900;4.648;2022-12-08T00:14:38;3.93;;;2.67;;
26686;SDS011;14298;50.900;4.648;2022-12-08T00:17:08;3.33;;;3.13;;
26686;SDS011;14298;50.900;4.648;2022-12-08T00:19:39;6.40;;;3.10;;
26686;SDS011;14298;50.900;4.648;2022-12-08T00:22:09;3.23;;;2.63;;
26686;SDS011;14298;50.900;4.648;2022-12-08T00:24:38;3.50;;;3.20;;
26686;SDS011;14298;50.900;4.648;2022-12-08T00:27:10;3.70;;;3.03;;
26686;SDS011;14298;50.900;4.648;2022-12-08T00:29:41;3.30;;;3.07;;
26686;SDS011;14298;50.900;4.648;2022-12-08T00:32:11;3.33;;;3.03;;
26686;SDS011;14298;50.900;4.648;2022-12-08T00:34:39;2.53;;;2.33;;
26686;SDS011;14298;50.900;4.648;2022-12-08T00:37:07;5.70;;;3.93;;
26686;SDS011;14298;50.900;4.648;2022-12-08T00:39:36;5.77;;;3.50;;
26686;SDS011;14298;50.900;4.648;2022-12-08T00:42:04;5.73;;;4.10;;
26686;SDS011;14298;50.900;4.648;2022-12-08T00:44:42;4.00;;;3.57;;
26686;SDS011;14298;50.900;4.648;2022-12-08T00:47:12;3.33;;;3.03;;
26686;SDS011;14298;50.900;4.648;2022-12-08T00:49:41;2.93;;;2.30;;
26686;SDS011;14298;50.900;4.648;2022-12-08T00:52:10;2.57;;;2.37;;
26686;SDS011;14298;50.900;4.648;2022-12-08T00:54:38;3.60;;;3.33;;
26686;SDS011;14298;50.900;4.648;2022-12-08T00:57:07;3.70;;;2.63;;
26686;SDS011;14298;50.900;4.648;2022-12-08T00:59:35;3.63;;;3.33;;
26686;SDS011;14298;50.900;4.648;2022-12-08T01:02:03;4.23;;;3.50;;
26686;SDS011;14298;50.900;4.648;2022-12-08T01:04:32;4.67;;;3.27;;
26686;SDS011;14298;50.900;4.648;2022-12-08T01:07:00;4.23;;;2.77;;
26686;SDS011;14298;50.900;4.648;2022-12-08T01:09:28;11.87;;;4.37;;
26686;SDS011;14298;50.900;4.648;2022-12-08T01:11:56;3.97;;;3.63;;
26686;SDS011;14298;50.900;4.648;2022-12-08T01:14:25;6.63;;;4.10;;
26686;SDS011;14298;50.900;4.648;2022-12-08T01:16:53;5.43;;;4.00;;
26686;SDS011;14298;50.900;4.648;2022-12-08T01:19:22;4.23;;;3.83;;
26686;SDS011;14298;50.900;4.648;2022-12-08T01:21:50;2.90;;;2.70;;
26686;SDS011;14298;50.900;4.648;2022-12-08T01:24:19;4.60;;;3.93;;
26686;SDS011;14298;50.900;4.648;2022-12-08T01:26:48;4.40;;;4.00;;
26686;SDS011;14298;50.900;4.648;2022-12-08T01:29:17;4.03;;;3.43;;
26686;SDS011;14298;50.900;4.648;2022-12-08T01:31:46;3.27;;;2.97;;
26686;SDS011;14298;50.900;4.648;2022-12-08T01:34:14;4.80;;;4.13;;
26686;SDS011;14298;50.900;4.648;2022-12-08T01:36:42;3.93;;;3.53;;
26686;SDS011;14298;50.900;4.648;2022-12-08T01:39:15;18.63;;;4.60;;
26686;SDS011;14298;50.900;4.648;2022-12-08T01:41:45;4.03;;;3.63;;
26686;SDS011;14298;50.900;4.648;2022-12-08T01:46:45;9.30;;;3.20;;
26686;SDS011;14298;50.900;4.648;2022-12-08T01:49:25;2.63;;;2.43;;
26686;SDS011;14298;50.900;4.648;2022-12-08T01:51:57;5.57;;;3.73;;
26686;SDS011;14298;50.900;4.648;2022-12-08T01:54:28;5.57;;;3.90;;
26686;SDS011;14298;50.900;4.648;2022-12-08T01:57:02;3.27;;;3.07;;
26686;SDS011;14298;50.900;4.648;2022-12-08T01:59:37;3.80;;;3.47;;
26686;SDS011;14298;50.900;4.648;2022-12-08T02:02:08;4.70;;;3.93;;
26686;SDS011;14298;50.900;4.648;2022-12-08T02:04:38;3.00;;;2.70;;
26686;SDS011;14298;50.900;4.648;2022-12-08T02:07:06;3.57;;;3.27;;
26686;SDS011;14298;50.900;4.648;2022-12-08T02:12:24;3.07;;;2.87;;
26686;SDS011;14298;50.900;4.648;2022-12-08T02:14:52;6.03;;;4.83;;
26686;SDS011;14298;50.900;4.648;2022-12-08T02:17:24;4.43;;;3.83;;
26686;SDS011;14298;50.900;4.648;2022-12-08T02:20:28;3.47;;;3.17;;
26686;SDS011;14298;50.900;4.648;2022-12-08T02:23:22;3.97;;;3.67;;
26686;SDS011;14298;50.900;4.648;2022-12-08T02:34:28;3.07;;;2.83;;
26686;SDS011;14298;50.900;4.648;2022-12-08T02:37:08;3.50;;;3.27;;
26686;SDS011;14298;50.900;4.648;2022-12-08T02:39:41;5.83;;;4.23;;
26686;SDS011;14298;50.900;4.648;2022-12-08T02:42:16;3.37;;;3.13;;
26686;SDS011;14298;50.900;4.648;2022-12-08T02:44:57;4.60;;;4.20;;
26686;SDS011;14298;50.900;4.648;2022-12-08T02:47:42;3.63;;;3.40;;
26686;SDS011;14298;50.900;4.648;2022-12-08T02:50:11;4.70;;;3.37;;
26686;SDS011;14298;50.900;4.648;2022-12-08T02:52:45;3.03;;;2.27;;
26686;SDS011;14298;50.900;4.648;2022-12-08T03:03:46;4.30;;;3.90;;
26686;SDS011;14298;50.900;4.648;2022-12-08T03:09:38;4.70;;;3.60;;
26686;SDS011;14298;50.900;4.648;2022-12-08T03:12:17;4.40;;;3.00;;
26686;SDS011;14298;50.900;4.648;2022-12-08T03:14:54;5.63;;;4.47;;
26686;SDS011;14298;50.900;4.648;2022-12-08T03:17:20;3.57;;;2.50;;
26686;SDS011;14298;50.900;4.648;2022-12-08T03:19:51;2.73;;;2.57;;
26686;SDS011;14298;50.900;4.648;2022-12-08T03:22:23;4.00;;;2.97;;
26686;SDS011;14298;50.900;4.648;2022-12-08T03:24:53;3.23;;;3.00;;
26686;SDS011;14298;50.900;4.648;2022-12-08T03:27:23;2.80;;;2.43;;
26686;SDS011;14298;50.900;4.648;2022-12-08T03:29:55;3.93;;;3.60;;
26686;SDS011;14298;50.900;4.648;2022-12-08T03:35:16;5.27;;;4.77;;
26686;SDS011;14298;50.900;4.648;2022-12-08T03:38:00;3.57;;;3.37;;
26686;SDS011;14298;50.900;4.648;2022-12-08T03:40:30;3.57;;;3.27;;
26686;SDS011;14298;50.900;4.648;2022-12-08T03:42:58;3.70;;;3.33;;
26686;SDS011;14298;50.900;4.648;2022-12-08T03:45:27;3.80;;;3.37;;
26686;SDS011;14298;50.900;4.648;2022-12-08T03:47:55;2.40;;;2.20;;
26686;SDS011;14298;50.900;4.648;2022-12-08T03:50:24;4.33;;;3.93;;
26686;SDS011;14298;50.900;4.648;2022-12-08T03:52:52;3.30;;;3.00;;
26686;SDS011;14298;50.900;4.648;2022-12-08T03:55:20;5.90;;;4.40;;
26686;SDS011;14298;50.900;4.648;2022-12-08T03:57:49;3.97;;;3.57;;
26686;SDS011;14298;50.900;4.648;2022-12-08T04:00:17;12.10;;;4.40;;
26686;SDS011;14298;50.900;4.648;2022-12-08T04:02:45;3.13;;;2.93;;
26686;SDS011;14298;50.900;4.648;2022-12-08T04:05:14;3.97;;;3.57;;
26686;SDS011;14298;50.900;4.648;2022-12-08T04:07:42;4.10;;;3.47;;
26686;SDS011;14298;50.900;4.648;2022-12-08T04:10:10;4.00;;;3.60;;
26686;SDS011;14298;50.900;4.648;2022-12-08T04:12:39;4.80;;;4.40;;
26686;SDS011;14298;50.900;4.648;2022-12-08T04:15:08;9.23;;;3.23;;
26686;SDS011;14298;50.900;4.648;2022-12-08T04:17:37;4.07;;;3.40;;
26686;SDS011;14298;50.900;4.648;2022-12-08T04:20:05;4.63;;;4.17;;
26686;SDS011;14298;50.900;4.648;2022-12-08T04:22:34;4.20;;;3.73;;
26686;SDS011;14298;50.900;4.648;2022-12-08T04:25:02;8.43;;;4.67;;
26686;SDS011;14298;50.900;4.648;2022-12-08T04:27:30;15.23;;;4.60;;
26686;SDS011;14298;50.900;4.648;2022-12-08T04:29:59;9.40;;;4.47;;
26686;SDS011;14298;50.900;4.648;2022-12-08T04:32:27;4.40;;;4.00;;
26686;SDS011;14298;50.900;4.648;2022-12-08T04:34:55;4.63;;;2.50;;
26686;SDS011;14298;50.900;4.648;2022-12-08T04:37:24;3.33;;;3.03;;
26686;SDS011;14298;50.900;4.648;2022-12-08T04:39:52;11.50;;;3.97;;
26686;SDS011;14298;50.900;4.648;2022-12-08T04:42:21;4.30;;;3.07;;
26686;SDS011;14298;50.900;4.648;2022-12-08T04:44:49;2.53;;;2.33;;
26686;SDS011;14298;50.900;4.648;2022-12-08T04:47:17;4.33;;;3.73;;
26686;SDS011;14298;50.900;4.648;2022-12-08T04:49:47;3.00;;;2.70;;
26686;SDS011;14298;50.900;4.648;2022-12-08T04:52:16;3.90;;;3.50;;
26686;SDS011;14298;50.900;4.648;2022-12-08T04:54:44;3.77;;;3.23;;
26686;SDS011;14298;50.900;4.648;2022-12-08T04:57:12;6.80;;;2.10;;
26686;SDS011;14298;50.900;4.648;2022-12-08T04:59:41;2.67;;;2.47;;
26686;SDS011;14298;50.900;4.648;2022-12-08T05:02:09;3.70;;;2.93;;
26686;SDS011;14298;50.900;4.648;2022-12-08T05:04:38;2.73;;;2.53;;
26686;SDS011;14298;50.900;4.648;2022-12-08T05:07:07;2.93;;;1.97;;
26686;SDS011;14298;50.900;4.648;2022-12-08T05:09:35;5.07;;;2.63;;
26686;SDS011;14298;50.900;4.648;2022-12-08T05:12:03;2.77;;;2.57;;
26686;SDS011;14298;50.900;4.648;2022-12-08T05:14:32;2.27;;;2.07;;
26686;SDS011;14298;50.900;4.648;2022-12-08T05:17:00;2.27;;;2.13;;
26686;SDS011;14298;50.900;4.648;2022-12-08T05:19:29;3.10;;;2.57;;
26686;SDS011;14298;50.900;4.648;2022-12-08T05:21:57;6.40;;;3.13;;
26686;SDS011;14298;50.900;4.648;2022-12-08T05:24:25;5.90;;;3.80;;
26686;SDS011;14298;50.900;4.648;2022-12-08T05:26:53;4.40;;;3.43;;
26686;SDS011;14298;50.900;4.648;2022-12-08T05:29:22;3.40;;;2.83;;
26686;SDS011;14298;50.900;4.648;2022-12-08T05:31:50;4.53;;;3.10;;
26686;SDS011;14298;50.900;4.648;2022-12-08T05:34:18;2.87;;;2.67;;
26686;SDS011;14298;50.900;4.648;2022-12-08T05:36:47;3.73;;;3.43;;
26686;SDS011;14298;50.900;4.648;2022-12-08T05:39:15;2.97;;;2.77;;
26686;SDS011;14298;50.900;4.648;2022-12-08T05:41:43;4.37;;;3.37;;
26686;SDS011;14298;50.900;4.648;2022-12-08T05:44:12;3.33;;;3.00;;
26686;SDS011;14298;50.900;4.648;2022-12-08T05:46:40;4.50;;;4.07;;
26686;SDS011;14298;50.900;4.648;2022-12-08T05:49:08;2.20;;;2.10;;
26686;SDS011;14298;50.900;4.648;2022-12-08T05:51:37;3.47;;;3.17;;
26686;SDS011;14298;50.900;4.648;2022-12-08T05:54:05;3.37;;;3.10;;
26686;SDS011;14298;50.900;4.648;2022-12-08T05:56:33;4.00;;;3.10;;
26686;SDS011;14298;50.900;4.648;2022-12-08T05:59:04;3.23;;;2.93;;
26686;SDS011;14298;50.900;4.648;2022-12-08T06:01:33;3.10;;;2.67;;
26686;SDS011;14298;50.900;4.648;2022-12-08T06:04:02;2.70;;;2.50;;
26686;SDS011;14298;50.900;4.648;2022-12-08T06:06:33;2.63;;;2.43;;
26686;SDS011;14298;50.900;4.648;2022-12-08T06:09:04;3.80;;;2.83;;
26686;SDS011;14298;50.900;4.648;2022-12-08T06:11:34;5.60;;;3.53;;
26686;SDS011;14298;50.900;4.648;2022-12-08T06:14:02;3.90;;;3.60;;
26686;SDS011;14298;50.900;4.648;2022-12-08T06:16:31;3.30;;;2.77;;
26686;SDS011;14298;50.900;4.648;2022-12-08T06:18:59;14.00;;;3.10;;
26686;SDS011;14298;50.900;4.648;2022-12-08T06:21:27;2.97;;;2.77;;
26686;SDS011;14298;50.900;4.648;2022-12-08T06:23:56;3.33;;;2.30;;
26686;SDS011;14298;50.900;4.648;2022-12-08T06:26:24;2.37;;;2.10;;
26686;SDS011;14298;50.900;4.648;2022-12-08T06:28:52;2.43;;;2.23;;
26686;SDS011;14298;50.900;4.648;2022-12-08T06:31:22;5.33;;;3.17;;
26686;SDS011;14298;50.900;4.648;2022-12-08T06:33:52;3.00;;;2.70;;
26686;SDS011;14298;50.900;4.648;2022-12-08T06:36:23;2.20;;;2.10;;
26686;SDS011;14298;50.900;4.648;2022-12-08T06:38:52;2.50;;;2.30;;
26686;SDS011;14298;50.900;4.648;2022-12-08T06:41:20;2.00;;;1.50;;
26686;SDS011;14298;50.900;4.648;2022-12-08T06:43:49;1.70;;;1.60;;
26686;SDS011;14298;50.900;4.648;2022-12-08T06:46:18;6.10;;;2.37;;
26686;SDS011;14298;50.900;4.648;2022-12-08T06:48:46;6.37;;;2.93;;
26686;SDS011;14298;50.900;4.648;2022-12-08T06:51:17;3.33;;;3.03;;
26686;SDS011;14298;50.900;4.648;2022-12-08T06:53:49;2.63;;;2.43;;
26686;SDS011;14298;50.900;4.648;2022-12-08T06:56:17;4.03;;;3.53;;
26686;SDS011;14298;50.900;4.648;2022-12-08T06:58:46;7.47;;;3.60;;
26686;SDS011;14298;50.900;4.648;2022-12-08T07:01:14;3.80;;;2.80;;
26686;SDS011;14298;50.900;4.648;2022-12-08T07:03:42;3.90;;;2.30;;
26686;SDS011;14298;50.900;4.648;2022-12-08T07:06:18;2.83;;;2.20;;
26686;SDS011;14298;50.900;4.648;2022-12-08T07:08:42;8.23;;;2.80;;
26686;SDS011;14298;50.900;4.648;2022-12-08T07:11:11;2.13;;;1.93;;
26686;SDS011;14298;50.900;4.648;2022-12-08T07:13:39;3.57;;;3.23;;
26686;SDS011;14298;50.900;4.648;2022-12-08T07:16:08;4.07;;;2.67;;
26686;SDS011;14298;50.900;4.648;2022-12-08T07:18:38;7.33;;;3.67;;
26686;SDS011;14298;50.900;4.648;2022-12-08T07:21:09;3.70;;;2.87;;
26686;SDS011;14298;50.900;4.648;2022-12-08T07:23:40;1.90;;;1.80;;
26686;SDS011;14298;50.900;4.648;2022-12-08T07:26:10;2.97;;;2.73;;
26686;SDS011;14298;50.900;4.648;2022-12-08T07:28:39;1.77;;;1.67;;
26686;SDS011;14298;50.900;4.648;2022-12-08T07:31:19;5.23;;;2.73;;
26686;SDS011;14298;50.900;4.648;2022-12-08T07:33:49;2.17;;;2.03;;
26686;SDS011;14298;50.900;4.648;2022-12-08T07:36:19;2.40;;;2.03;;
26686;SDS011;14298;50.900;4.648;2022-12-08T07:38:48;1.63;;;1.53;;
26686;SDS011;14298;50.900;4.648;2022-12-08T07:41:19;2.67;;;2.07;;
26686;SDS011;14298;50.900;4.648;2022-12-08T07:43:49;2.30;;;2.10;;
26686;SDS011;14298;50.900;4.648;2022-12-08T07:46:20;2.50;;;2.33;;
26686;SDS011;14298;50.900;4.648;2022-12-08T07:48:50;2.93;;;2.70;;
26686;SDS011;14298;50.900;4.648;2022-12-08T07:51:20;2.27;;;2.07;;
26686;SDS011;14298;50.900;4.648;2022-12-08T07:53:49;2.13;;;1.57;;
26686;SDS011;14298;50.900;4.648;2022-12-08T07:56:18;3.13;;;2.00;;
26686;SDS011;14298;50.900;4.648;2022-12-08T07:58:46;5.13;;;2.07;;
26686;SDS011;14298;50.900;4.648;2022-12-08T08:01:25;2.43;;;2.17;;
26686;SDS011;14298;50.900;4.648;2022-12-08T08:03:55;2.70;;;2.50;;
26686;SDS011;14298;50.900;4.648;2022-12-08T08:06:27;2.90;;;2.60;;
26686;SDS011;14298;50.900;4.648;2022-12-08T08:08:55;2.27;;;2.17;;
26686;SDS011;14298;50.900;4.648;2022-12-08T08:11:23;1.70;;;1.60;;
26686;SDS011;14298;50.900;4.648;2022-12-08T08:13:52;5.90;;;4.07;;
26686;SDS011;14298;50.900;4.648;2022-12-08T08:16:20;2.80;;;2.43;;
26686;SDS011;14298;50.900;4.648;2022-12-08T08:18:49;2.43;;;2.23;;
26686;SDS011;14298;50.900;4.648;2022-12-08T08:21:18;1.97;;;1.87;;
26686;SDS011;14298;50.900;4.648;2022-12-08T08:23:47;3.27;;;2.17;;
26686;SDS011;14298;50.900;4.648;2022-12-08T08:26:15;1.97;;;1.87;;
26686;SDS011;14298;50.900;4.648;2022-12-08T08:28:44;4.97;;;2.57;;
26686;SDS011;14298;50.900;4.648;2022-12-08T08:31:13;1.63;;;1.53;;
26686;SDS011;14298;50.900;4.648;2022-12-08T08:33:42;2.53;;;2.33;;
26686;SDS011;14298;50.900;4.648;2022-12-08T08:36:10;2.83;;;2.10;;
26686;SDS011;14298;50.900;4.648;2022-12-08T08:38:39;5.00;;;2.30;;
26686;SDS011;14298;50.900;4.648;2022-12-08T08:41:09;2.20;;;2.00;;
26686;SDS011;14298;50.900;4.648;2022-12-08T08:43:38;2.80;;;2.67;;
26686;SDS011;14298;50.900;4.648;2022-12-08T08:46:06;2.33;;;2.07;;
26686;SDS011;14298;50.900;4.648;2022-12-08T08:48:34;6.83;;;2.77;;
26686;SDS011;14298;50.900;4.648;2022-12-08T08:51:10;2.50;;;2.30;;
26686;SDS011;14298;50.900;4.648;2022-12-08T08:53:56;2.73;;;2.53;;
26686;SDS011;14298;50.900;4.648;2022-12-08T08:56:24;2.13;;;2.03;;
26686;SDS011;14298;50.900;4.648;2022-12-08T09:01:34;2.63;;;2.43;;
26686;SDS011;14298;50.900;4.648;2022-12-08T09:04:02;1.80;;;1.50;;
26686;SDS011;14298;50.900;4.648;2022-12-08T09:06:30;2.23;;;2.03;;
26686;SDS011;14298;50.900;4.648;2022-12-08T09:08:59;2.00;;;1.80;;
26686;SDS011;14298;50.900;4.648;2022-12-08T09:11:27;2.43;;;2.13;;
26686;SDS011;14298;50.900;4.648;2022-12-08T09:13:55;3.67;;;3.37;;
26686;SDS011;14298;50.900;4.648;2022-12-08T09:16:23;2.97;;;2.77;;
26686;SDS011;14298;50.900;4.648;2022-12-08T09:18:52;2.13;;;2.03;;
26686;SDS011;14298;50.900;4.648;2022-12-08T09:21:22;3.40;;;2.83;;
26686;SDS011;14298;50.900;4.648;2022-12-08T09:23:53;4.10;;;3.10;;
26686;SDS011;14298;50.900;4.648;2022-12-08T09:26:23;3.40;;;2.43;;
26686;SDS011;14298;50.900;4.648;2022-12-08T09:28:53;3.40;;;2.40;;
26686;SDS011;14298;50.900;4.648;2022-12-08T09:31:23;1.87;;;1.77;;
26686;SDS011;14298;50.900;4.648;2022-12-08T09:33:51;4.90;;;4.13;;
26686;SDS011;14298;50.900;4.648;2022-12-08T09:36:20;2.83;;;2.43;;
26686;SDS011;14298;50.900;4.648;2022-12-08T09:38:49;4.20;;;3.17;;
26686;SDS011;14298;50.900;4.648;2022-12-08T09:41:21;2.83;;;2.63;;
26686;SDS011;14298;50.900;4.648;2022-12-08T09:43:59;4.60;;;3.07;;
26686;SDS011;14298;50.900;4.648;2022-12-08T09:46:27;3.30;;;3.10;;
26686;SDS011;14298;50.900;4.648;2022-12-08T09:48:58;3.83;;;3.53;;
26686;SDS011;14298;50.900;4.648;2022-12-08T09:51:29;3.67;;;3.23;;
26686;SDS011;14298;50.900;4.648;2022-12-08T09:54:10;2.73;;;2.43;;
26686;SDS011;14298;50.900;4.648;2022-12-08T09:56:42;3.47;;;2.43;;
26686;SDS011;14298;50.900;4.648;2022-12-08T09:59:18;2.93;;;2.73;;
26686;SDS011;14298;50.900;4.648;2022-12-08T10:01:45;3.83;;;3.13;;
26686;SDS011;14298;50.900;4.648;2022-12-08T10:04:19;2.77;;;2.47;;
26686;SDS011;14298;50.900;4.648;2022-12-08T10:09:38;3.27;;;3.00;;
26686;SDS011;14298;50.900;4.648;2022-12-08T10:12:21;5.57;;;2.13;;
26686;SDS011;14298;50.900;4.648;2022-12-08T10:17:26;4.37;;;3.10;;
26686;SDS011;14298;50.900;4.648;2022-12-08T10:20:17;1.77;;;1.67;;
26686;SDS011;14298;50.900;4.648;2022-12-08T10:23:01;1.83;;;1.73;;
26686;SDS011;14298;50.900;4.648;2022-12-08T10:28:12;6.37;;;3.13;;
26686;SDS011;14298;50.900;4.648;2022-12-08T10:30:41;5.13;;;3.47;;
26686;SDS011;14298;50.900;4.648;2022-12-08T10:33:13;3.53;;;2.53;;
26686;SDS011;14298;50.900;4.648;2022-12-08T10:40:50;3.77;;;2.83;;
26686;SDS011;14298;50.900;4.648;2022-12-08T10:43:21;2.73;;;2.53;;
26686;SDS011;14298;50.900;4.648;2022-12-08T10:45:51;2.40;;;2.30;;
26686;SDS011;14298;50.900;4.648;2022-12-08T10:48:27;4.13;;;3.73;;
26686;SDS011;14298;50.900;4.648;2022-12-08T10:50:59;3.03;;;2.83;;
26686;SDS011;14298;50.900;4.648;2022-12-08T10:53:43;9.77;;;2.53;;
26686;SDS011;14298;50.900;4.648;2022-12-08T10:58:32;4.33;;;2.77;;
26686;SDS011;14298;50.900;4.648;2022-12-08T11:01:12;4.53;;;2.67;;
26686;SDS011;14298;50.900;4.648;2022-12-08T11:03:49;3.07;;;2.63;;
26686;SDS011;14298;50.900;4.648;2022-12-08T11:11:50;2.60;;;2.40;;
26686;SDS011;14298;50.900;4.648;2022-12-08T11:14:22;3.03;;;2.73;;
26686;SDS011;14298;50.900;4.648;2022-12-08T11:16:53;2.77;;;2.57;;
26686;SDS011;14298;50.900;4.648;2022-12-08T11:19:30;2.90;;;2.70;;
26686;SDS011;14298;50.900;4.648;2022-12-08T11:22:00;5.87;;;3.00;;
26686;SDS011;14298;50.900;4.648;2022-12-08T11:24:29;2.10;;;2.00;;
26686;SDS011;14298;50.900;4.648;2022-12-08T11:27:01;2.27;;;2.07;;
26686;SDS011;14298;50.900;4.648;2022-12-08T11:29:32;2.87;;;2.67;;
26686;SDS011;14298;50.900;4.648;2022-12-08T11:32:03;2.40;;;2.17;;
26686;SDS011;14298;50.900;4.648;2022-12-08T11:34:38;2.70;;;2.50;;
26686;SDS011;14298;50.900;4.648;2022-12-08T11:37:24;8.17;;;4.70;;
26686;SDS011;14298;50.900;4.648;2022-12-08T11:39:54;7.10;;;4.40;;
26686;SDS011;14298;50.900;4.648;2022-12-08T11:42:28;2.30;;;2.10;;
26686;SDS011;14298;50.900;4.648;2022-12-08T11:44:57;2.83;;;2.50;;
26686;SDS011;14298;50.900;4.648;2022-12-08T11:47:30;3.63;;;3.33;;
26686;SDS011;14298;50.900;4.648;2022-12-08T11:50:15;2.50;;;2.30;;
26686;SDS011;14298;50.900;4.648;2022-12-08T11:52:46;2.10;;;2.00;;
26686;SDS011;14298;50.900;4.648;2022-12-08T11:58:03;3.03;;;2.53;;
26686;SDS011;14298;50.900;4.648;2022-12-08T12:00:31;2.70;;;2.23;;
26686;SDS011;14298;50.900;4.648;2022-12-08T12:03:02;3.53;;;2.83;;
26686;SDS011;14298;50.900;4.648;2022-12-08T12:11:08;2.10;;;1.90;;
26686;SDS011;14298;50.900;4.648;2022-12-08T12:14:45;5.07;;;3.30;;
26686;SDS011;14298;50.900;4.648;2022-12-08T12:20:01;1.57;;;1.47;;
26686;SDS011;14298;50.900;4.648;2022-12-08T12:22:32;1.57;;;1.47;;
26686;SDS011;14298;50.900;4.648;2022-12-08T12:25:01;2.93;;;2.37;;
26686;SDS011;14298;50.900;4.648;2022-12-08T12:27:37;3.13;;;1.33;;
26686;SDS011;14298;50.900;4.648;2022-12-08T12:30:16;3.07;;;2.13;;
26686;SDS011;14298;50.900;4.648;2022-12-08T12:35:41;1.77;;;1.63;;
26686;SDS011;14298;50.900;4.648;2022-12-08T12:41:27;1.53;;;1.30;;
26686;SDS011;14298;50.900;4.648;2022-12-08T12:44:07;2.57;;;2.10;;
26686;SDS011;14298;50.900;4.648;2022-12-08T12:46:58;2.13;;;1.23;;
26686;SDS011;14298;50.900;4.648;2022-12-08T13:00:27;2.13;;;2.03;;
26686;SDS011;14298;50.900;4.648;2022-12-08T13:02:56;2.57;;;1.63;;
26686;SDS011;14298;50.900;4.648;2022-12-08T13:08:21;2.37;;;2.13;;
26686;SDS011;14298;50.900;4.648;2022-12-08T13:13:34;1.60;;;1.40;;
26686;SDS011;14298;50.900;4.648;2022-12-08T13:18:39;2.53;;;2.33;;
26686;SDS011;14298;50.900;4.648;2022-12-08T13:21:17;5.03;;;2.90;;
26686;SDS011;14298;50.900;4.648;2022-12-08T13:24:11;2.10;;;1.83;;
26686;SDS011;14298;50.900;4.648;2022-12-08T13:26:43;1.73;;;1.63;;
26686;SDS011;14298;50.900;4.648;2022-12-08T13:29:17;1.07;;;1.07;;
26686;SDS011;14298;50.900;4.648;2022-12-08T13:37:00;2.70;;;1.83;;
26686;SDS011;14298;50.900;4.648;2022-12-08T13:40:11;2.60;;;2.40;;
26686;SDS011;14298;50.900;4.648;2022-12-08T13:42:49;2.70;;;1.93;;
26686;SDS011;14298;50.900;4.648;2022-12-08T13:45:27;3.53;;;2.43;;
26686;SDS011;14298;50.900;4.648;2022-12-08T13:54:29;1.33;;;1.27;;
26686;SDS011;14298;50.900;4.648;2022-12-08T13:57:06;2.03;;;1.83;;
26686;SDS011;14298;50.900;4.648;2022-12-08T13:59:36;1.87;;;1.53;;
26686;SDS011;14298;50.900;4.648;2022-12-08T14:02:22;1.87;;;1.73;;
26686;SDS011;14298;50.900;4.648;2022-12-08T14:04:42;1.53;;;1.43;;
26686;SDS011;14298;50.900;4.648;2022-12-08T14:07:10;1.53;;;1.43;;
26686;SDS011;14298;50.900;4.648;2022-12-08T14:09:39;2.80;;;2.10;;
26686;SDS011;14298;50.900;4.648;2022-12-08T14:14:59;0.97;;;0.97;;
26686;SDS011;14298;50.900;4.648;2022-12-08T14:17:29;0.90;;;0.90;;
26686;SDS011;14298;50.900;4.648;2022-12-08T14:22:47;0.87;;;0.87;;
26686;SDS011;14298;50.900;4.648;2022-12-08T14:25:36;0.60;;;0.60;;
26686;SDS011;14298;50.900;4.648;2022-12-08T14:28:08;0.63;;;0.63;;
26686;SDS011;14298;50.900;4.648;2022-12-08T14:30:36;0.87;;;0.87;;
26686;SDS011;14298;50.900;4.648;2022-12-08T14:33:08;1.67;;;1.57;;
26686;SDS011;14298;50.900;4.648;2022-12-08T14:35:37;0.90;;;0.90;;
26686;SDS011;14298;50.900;4.648;2022-12-08T14:41:06;0.63;;;0.63;;
26686;SDS011;14298;50.900;4.648;2022-12-08T14:43:59;0.40;;;0.40;;
26686;SDS011;14298;50.900;4.648;2022-12-08T14:46:28;0.83;;;0.83;;
26686;SDS011;14298;50.900;4.648;2022-12-08T14:48:57;0.90;;;0.90;;
26686;SDS011;14298;50.900;4.648;2022-12-08T14:51:29;0.70;;;0.70;;
26686;SDS011;14298;50.900;4.648;2022-12-08T14:54:00;2.30;;;0.60;;
26686;SDS011;14298;50.900;4.648;2022-12-08T14:56:31;0.60;;;0.60;;
26686;SDS011;14298;50.900;4.648;2022-12-08T14:59:06;2.33;;;0.93;;
26686;SDS011;14298;50.900;4.648;2022-12-08T15:05:00;0.70;;;0.70;;
26686;SDS011;14298;50.900;4.648;2022-12-08T15:07:34;0.80;;;0.80;;
26686;SDS011;14298;50.900;4.648;2022-12-08T15:10:22;7.17;;;0.80;;
26686;SDS011;14298;50.900;4.648;2022-12-08T15:13:19;0.83;;;0.83;;
26686;SDS011;14298;50.900;4.648;2022-12-08T15:15:51;0.70;;;0.70;;
26686;SDS011;14298;50.900;4.648;2022-12-08T15:18:29;1.13;;;0.80;;
26686;SDS011;14298;50.900;4.648;2022-12-08T15:21:10;0.63;;;0.63;;
26686;SDS011;14298;50.900;4.648;2022-12-08T15:26:22;1.20;;;1.10;;
26686;SDS011;14298;50.900;4.648;2022-12-08T15:28:52;1.40;;;1.30;;
26686;SDS011;14298;50.900;4.648;2022-12-08T15:31:21;1.10;;;1.07;;
26686;SDS011;14298;50.900;4.648;2022-12-08T15:33:49;0.70;;;0.70;;
26686;SDS011;14298;50.900;4.648;2022-12-08T15:36:18;0.83;;;0.83;;
26686;SDS011;14298;50.900;4.648;2022-12-08T15:38:46;0.57;;;0.57;;
26686;SDS011;14298;50.900;4.648;2022-12-08T15:41:14;1.87;;;0.87;;
26686;SDS011;14298;50.900;4.648;2022-12-08T15:43:43;0.80;;;0.80;;
26686;SDS011;14298;50.900;4.648;2022-12-08T15:46:11;0.67;;;0.67;;
26686;SDS011;14298;50.900;4.648;2022-12-08T15:48:39;1.53;;;1.43;;
26686;SDS011;14298;50.900;4.648;2022-12-08T15:51:08;0.67;;;0.67;;
26686;SDS011;14298;50.900;4.648;2022-12-08T15:53:36;1.37;;;1.13;;
26686;SDS011;14298;50.900;4.648;2022-12-08T15:56:05;0.80;;;0.80;;
26686;SDS011;14298;50.900;4.648;2022-12-08T15:58:34;1.23;;;0.90;;
26686;SDS011;14298;50.900;4.648;2022-12-08T16:01:04;1.23;;;1.10;;
26686;SDS011;14298;50.900;4.648;2022-12-08T16:03:32;1.63;;;1.50;;
26686;SDS011;14298;50.900;4.648;2022-12-08T16:06:00;1.50;;;1.40;;
26686;SDS011;14298;50.900;4.648;2022-12-08T16:08:29;1.17;;;1.10;;
26686;SDS011;14298;50.900;4.648;2022-12-08T16:10:58;1.20;;;1.20;;
26686;SDS011;14298;50.900;4.648;2022-12-08T16:13:44;1.90;;;1.80;;
26686;SDS011;14298;50.900;4.648;2022-12-08T16:16:21;2.60;;;1.70;;
26686;SDS011;14298;50.900;4.648;2022-12-08T16:18:50;1.73;;;1.63;;
26686;SDS011;14298;50.900;4.648;2022-12-08T16:21:18;2.13;;;1.97;;
26686;SDS011;14298;50.900;4.648;2022-12-08T16:23:47;2.80;;;2.27;;
26686;SDS011;14298;50.900;4.648;2022-12-08T16:26:16;1.60;;;1.50;;
26686;SDS011;14298;50.900;4.648;2022-12-08T16:28:47;3.17;;;1.50;;
26686;SDS011;14298;50.900;4.648;2022-12-08T16:31:15;1.50;;;1.47;;
26686;SDS011;14298;50.900;4.648;2022-12-08T16:33:43;3.70;;;1.40;;
26686;SDS011;14298;50.900;4.648;2022-12-08T16:36:12;1.93;;;1.83;;
26686;SDS011;14298;50.900;4.648;2022-12-08T16:38:40;1.40;;;1.30;;
26686;SDS011;14298;50.900;4.648;2022-12-08T16:41:16;5.30;;;3.10;;
26686;SDS011;14298;50.900;4.648;2022-12-08T16:44:19;1.57;;;1.47;;
26686;SDS011;14298;50.900;4.648;2022-12-08T16:46:47;1.60;;;1.50;;
26686;SDS011;14298;50.900;4.648;2022-12-08T16:52:06;1.60;;;1.23;;
26686;SDS011;14298;50.900;4.648;2022-12-08T16:54:34;2.20;;;2.00;;
26686;SDS011;14298;50.900;4.648;2022-12-08T16:57:02;1.87;;;1.77;;
26686;SDS011;14298;50.900;4.648;2022-12-08T16:59:31;2.77;;;1.90;;
26686;SDS011;14298;50.900;4.648;2022-12-08T17:01:59;1.40;;;1.30;;
26686;SDS011;14298;50.900;4.648;2022-12-08T17:04:28;1.37;;;1.30;;
26686;SDS011;14298;50.900;4.648;2022-12-08T17:06:57;2.00;;;1.90;;
26686;SDS011;14298;50.900;4.648;2022-12-08T17:09:26;1.60;;;1.50;;
26686;SDS011;14298;50.900;4.648;2022-12-08T17:11:56;1.83;;;1.70;;